Terminal Aerodrome Forecast
Issued by NWS Wilmington, NC

Home | Current Version | Previous Version | Text Only | Print | Product List | Glossary On
Versions: 1 2 3 4 5 6 7 8 9 10 11 12
414
FTUS42 KILM 200520
TAFILM
TAF
KILM 200520Z 2006/2106 00000KT P6SM SKC
      TEMPO 2010/2012 4SM BR
     FM201400 36005KT P6SM SKC
     FM201900 08007KT P6SM SKC=

USA.gov is the U.S. government's official web portal to all federal, state and local government web resources and services.